sensor_id;sensor_type;location;lat;lon;timestamp;P1;durP1;ratioP1;P2;durP2;ratioP2
15412;SDS011;7805;49.554;7.632;2023-07-30T00:01:56;1.40;;;1.20;;
15412;SDS011;7805;49.554;7.632;2023-07-30T00:04:21;1.00;;;0.90;;
15412;SDS011;7805;49.554;7.632;2023-07-30T00:06:48;1.33;;;1.10;;
15412;SDS011;7805;49.554;7.632;2023-07-30T00:09:13;1.83;;;1.03;;
15412;SDS011;7805;49.554;7.632;2023-07-30T00:11:39;2.40;;;1.17;;
15412;SDS011;7805;49.554;7.632;2023-07-30T00:14:05;2.83;;;1.20;;
15412;SDS011;7805;49.554;7.632;2023-07-30T00:16:30;2.40;;;1.27;;
15412;SDS011;7805;49.554;7.632;2023-07-30T00:18:56;2.05;;;1.20;;
15412;SDS011;7805;49.554;7.632;2023-07-30T00:21:21;1.50;;;1.00;;
15412;SDS011;7805;49.554;7.632;2023-07-30T00:23:47;2.10;;;1.03;;
15412;SDS011;7805;49.554;7.632;2023-07-30T00:26:13;2.93;;;1.30;;
15412;SDS011;7805;49.554;7.632;2023-07-30T00:28:39;3.33;;;1.40;;
15412;SDS011;7805;49.554;7.632;2023-07-30T00:31:04;2.50;;;1.07;;
15412;SDS011;7805;49.554;7.632;2023-07-30T00:33:30;2.43;;;1.47;;
15412;SDS011;7805;49.554;7.632;2023-07-30T00:35:55;3.23;;;1.43;;
15412;SDS011;7805;49.554;7.632;2023-07-30T00:38:21;1.33;;;1.23;;
15412;SDS011;7805;49.554;7.632;2023-07-30T00:40:47;4.43;;;1.80;;
15412;SDS011;7805;49.554;7.632;2023-07-30T00:43:12;3.67;;;1.67;;
15412;SDS011;7805;49.554;7.632;2023-07-30T00:45:38;2.03;;;1.53;;
15412;SDS011;7805;49.554;7.632;2023-07-30T00:48:06;2.83;;;1.57;;
15412;SDS011;7805;49.554;7.632;2023-07-30T00:50:31;2.43;;;1.80;;
15412;SDS011;7805;49.554;7.632;2023-07-30T00:52:58;4.93;;;1.93;;
15412;SDS011;7805;49.554;7.632;2023-07-30T00:55:24;3.87;;;1.63;;
15412;SDS011;7805;49.554;7.632;2023-07-30T00:57:50;3.17;;;2.00;;
15412;SDS011;7805;49.554;7.632;2023-07-30T01:00:16;2.27;;;2.00;;
15412;SDS011;7805;49.554;7.632;2023-07-30T01:02:43;4.27;;;2.60;;
15412;SDS011;7805;49.554;7.632;2023-07-30T01:05:08;4.00;;;1.83;;
15412;SDS011;7805;49.554;7.632;2023-07-30T01:07:34;1.97;;;1.80;;
15412;SDS011;7805;49.554;7.632;2023-07-30T01:10:00;3.17;;;1.90;;
15412;SDS011;7805;49.554;7.632;2023-07-30T01:12:26;2.97;;;1.67;;
15412;SDS011;7805;49.554;7.632;2023-07-30T01:14:55;2.00;;;1.70;;
15412;SDS011;7805;49.554;7.632;2023-07-30T01:17:21;2.53;;;2.03;;
15412;SDS011;7805;49.554;7.632;2023-07-30T01:19:47;2.10;;;1.90;;
15412;SDS011;7805;49.554;7.632;2023-07-30T01:22:19;2.10;;;1.90;;
15412;SDS011;7805;49.554;7.632;2023-07-30T01:24:45;2.77;;;2.10;;
15412;SDS011;7805;49.554;7.632;2023-07-30T01:27:12;2.27;;;2.07;;
15412;SDS011;7805;49.554;7.632;2023-07-30T01:29:49;3.13;;;2.13;;
15412;SDS011;7805;49.554;7.632;2023-07-30T01:32:19;2.10;;;2.00;;
15412;SDS011;7805;49.554;7.632;2023-07-30T01:34:50;2.97;;;2.20;;
15412;SDS011;7805;49.554;7.632;2023-07-30T01:37:17;5.37;;;2.37;;
15412;SDS011;7805;49.554;7.632;2023-07-30T01:39:43;2.97;;;2.23;;
15412;SDS011;7805;49.554;7.632;2023-07-30T01:42:13;2.30;;;2.20;;
15412;SDS011;7805;49.554;7.632;2023-07-30T01:44:38;1.90;;;1.80;;
15412;SDS011;7805;49.554;7.632;2023-07-30T01:47:04;4.60;;;2.10;;
15412;SDS011;7805;49.554;7.632;2023-07-30T01:49:30;3.50;;;2.30;;
15412;SDS011;7805;49.554;7.632;2023-07-30T01:51:55;3.73;;;1.90;;
15412;SDS011;7805;49.554;7.632;2023-07-30T01:54:21;1.60;;;1.50;;
15412;SDS011;7805;49.554;7.632;2023-07-30T01:56:46;3.53;;;2.40;;
15412;SDS011;7805;49.554;7.632;2023-07-30T01:59:12;2.20;;;2.10;;
15412;SDS011;7805;49.554;7.632;2023-07-30T02:01:37;2.20;;;2.00;;
15412;SDS011;7805;49.554;7.632;2023-07-30T02:04:03;2.83;;;2.00;;
15412;SDS011;7805;49.554;7.632;2023-07-30T02:06:29;3.17;;;2.30;;
15412;SDS011;7805;49.554;7.632;2023-07-30T02:08:54;2.93;;;2.00;;
15412;SDS011;7805;49.554;7.632;2023-07-30T02:11:20;2.10;;;2.00;;
15412;SDS011;7805;49.554;7.632;2023-07-30T02:13:45;4.00;;;2.53;;
15412;SDS011;7805;49.554;7.632;2023-07-30T02:16:11;5.47;;;2.50;;
15412;SDS011;7805;49.554;7.632;2023-07-30T02:18:36;2.90;;;2.57;;
15412;SDS011;7805;49.554;7.632;2023-07-30T02:21:02;2.00;;;1.90;;
15412;SDS011;7805;49.554;7.632;2023-07-30T02:23:28;3.97;;;2.10;;
15412;SDS011;7805;49.554;7.632;2023-07-30T02:25:54;3.47;;;2.70;;
15412;SDS011;7805;49.554;7.632;2023-07-30T02:28:20;4.23;;;2.30;;
15412;SDS011;7805;49.554;7.632;2023-07-30T02:30:45;2.90;;;2.20;;
15412;SDS011;7805;49.554;7.632;2023-07-30T02:33:11;2.40;;;2.20;;
15412;SDS011;7805;49.554;7.632;2023-07-30T02:35:36;4.37;;;2.30;;
15412;SDS011;7805;49.554;7.632;2023-07-30T02:38:02;6.53;;;2.10;;
15412;SDS011;7805;49.554;7.632;2023-07-30T02:40:28;2.70;;;2.30;;
15412;SDS011;7805;49.554;7.632;2023-07-30T02:42:54;2.40;;;2.20;;
15412;SDS011;7805;49.554;7.632;2023-07-30T02:45:19;2.20;;;2.00;;
15412;SDS011;7805;49.554;7.632;2023-07-30T02:47:45;5.23;;;2.13;;
15412;SDS011;7805;49.554;7.632;2023-07-30T02:50:10;5.47;;;2.70;;
15412;SDS011;7805;49.554;7.632;2023-07-30T02:52:36;2.50;;;2.30;;
15412;SDS011;7805;49.554;7.632;2023-07-30T02:55:02;3.50;;;1.97;;
15412;SDS011;7805;49.554;7.632;2023-07-30T02:57:27;2.17;;;1.93;;
15412;SDS011;7805;49.554;7.632;2023-07-30T02:59:53;2.50;;;2.30;;
15412;SDS011;7805;49.554;7.632;2023-07-30T03:02:18;2.73;;;2.10;;
15412;SDS011;7805;49.554;7.632;2023-07-30T03:04:44;2.53;;;2.30;;
15412;SDS011;7805;49.554;7.632;2023-07-30T03:07:10;2.30;;;2.10;;
15412;SDS011;7805;49.554;7.632;2023-07-30T03:09:35;2.20;;;2.00;;
15412;SDS011;7805;49.554;7.632;2023-07-30T03:12:01;2.97;;;2.37;;
15412;SDS011;7805;49.554;7.632;2023-07-30T03:14:27;3.00;;;2.00;;
15412;SDS011;7805;49.554;7.632;2023-07-30T03:16:52;2.43;;;1.97;;
15412;SDS011;7805;49.554;7.632;2023-07-30T03:19:18;2.50;;;2.30;;
15412;SDS011;7805;49.554;7.632;2023-07-30T03:21:43;3.60;;;2.27;;
15412;SDS011;7805;49.554;7.632;2023-07-30T03:24:09;3.47;;;2.40;;
15412;SDS011;7805;49.554;7.632;2023-07-30T03:26:34;2.40;;;2.20;;
15412;SDS011;7805;49.554;7.632;2023-07-30T03:29:00;2.77;;;2.03;;
15412;SDS011;7805;49.554;7.632;2023-07-30T03:31:25;3.43;;;2.20;;
15412;SDS011;7805;49.554;7.632;2023-07-30T03:33:53;2.10;;;2.00;;
15412;SDS011;7805;49.554;7.632;2023-07-30T03:36:19;2.30;;;2.20;;
15412;SDS011;7805;49.554;7.632;2023-07-30T03:38:44;3.77;;;2.40;;
15412;SDS011;7805;49.554;7.632;2023-07-30T03:41:10;3.77;;;2.00;;
15412;SDS011;7805;49.554;7.632;2023-07-30T03:43:36;2.50;;;1.90;;
15412;SDS011;7805;49.554;7.632;2023-07-30T03:46:02;3.37;;;2.30;;
15412;SDS011;7805;49.554;7.632;2023-07-30T03:48:27;4.03;;;2.27;;
15412;SDS011;7805;49.554;7.632;2023-07-30T03:50:53;3.73;;;2.10;;
15412;SDS011;7805;49.554;7.632;2023-07-30T03:53:20;4.87;;;2.60;;
15412;SDS011;7805;49.554;7.632;2023-07-30T03:55:46;6.50;;;2.60;;
15412;SDS011;7805;49.554;7.632;2023-07-30T03:58:11;2.57;;;2.33;;
15412;SDS011;7805;49.554;7.632;2023-07-30T04:00:37;2.70;;;2.50;;
15412;SDS011;7805;49.554;7.632;2023-07-30T04:03:02;2.60;;;2.40;;
15412;SDS011;7805;49.554;7.632;2023-07-30T04:05:28;4.10;;;2.33;;
15412;SDS011;7805;49.554;7.632;2023-07-30T04:07:54;2.23;;;2.07;;
15412;SDS011;7805;49.554;7.632;2023-07-30T04:10:20;4.30;;;2.33;;
15412;SDS011;7805;49.554;7.632;2023-07-30T04:12:45;2.33;;;1.83;;
15412;SDS011;7805;49.554;7.632;2023-07-30T04:15:11;5.03;;;2.33;;
15412;SDS011;7805;49.554;7.632;2023-07-30T04:17:37;3.73;;;2.30;;
15412;SDS011;7805;49.554;7.632;2023-07-30T04:20:03;2.77;;;2.40;;
15412;SDS011;7805;49.554;7.632;2023-07-30T04:22:29;6.13;;;2.80;;
15412;SDS011;7805;49.554;7.632;2023-07-30T04:24:55;5.37;;;2.43;;
15412;SDS011;7805;49.554;7.632;2023-07-30T04:27:21;3.83;;;2.80;;
15412;SDS011;7805;49.554;7.632;2023-07-30T04:29:47;5.40;;;2.30;;
15412;SDS011;7805;49.554;7.632;2023-07-30T04:32:12;4.07;;;2.17;;
15412;SDS011;7805;49.554;7.632;2023-07-30T04:34:38;3.83;;;2.67;;
15412;SDS011;7805;49.554;7.632;2023-07-30T04:37:03;4.33;;;2.97;;
15412;SDS011;7805;49.554;7.632;2023-07-30T04:39:30;4.57;;;2.67;;
15412;SDS011;7805;49.554;7.632;2023-07-30T04:41:57;2.73;;;2.53;;
15412;SDS011;7805;49.554;7.632;2023-07-30T04:44:23;3.77;;;2.70;;
15412;SDS011;7805;49.554;7.632;2023-07-30T04:46:48;2.33;;;2.23;;
15412;SDS011;7805;49.554;7.632;2023-07-30T04:49:14;2.63;;;2.43;;
15412;SDS011;7805;49.554;7.632;2023-07-30T04:51:39;2.87;;;2.60;;
15412;SDS011;7805;49.554;7.632;2023-07-30T04:54:05;3.03;;;2.83;;
15412;SDS011;7805;49.554;7.632;2023-07-30T04:56:31;4.00;;;3.40;;
15412;SDS011;7805;49.554;7.632;2023-07-30T04:58:56;4.83;;;4.43;;
15412;SDS011;7805;49.554;7.632;2023-07-30T05:01:23;4.43;;;2.93;;
15412;SDS011;7805;49.554;7.632;2023-07-30T05:03:49;7.10;;;2.90;;
15412;SDS011;7805;49.554;7.632;2023-07-30T05:06:15;6.07;;;2.97;;
15412;SDS011;7805;49.554;7.632;2023-07-30T05:08:40;5.10;;;3.77;;
15412;SDS011;7805;49.554;7.632;2023-07-30T05:11:06;5.37;;;3.33;;
15412;SDS011;7805;49.554;7.632;2023-07-30T05:13:31;6.07;;;2.87;;
15412;SDS011;7805;49.554;7.632;2023-07-30T05:15:57;4.53;;;3.60;;
15412;SDS011;7805;49.554;7.632;2023-07-30T05:18:22;4.27;;;3.87;;
15412;SDS011;7805;49.554;7.632;2023-07-30T05:20:48;4.70;;;4.30;;
15412;SDS011;7805;49.554;7.632;2023-07-30T05:23:14;3.93;;;3.63;;
15412;SDS011;7805;49.554;7.632;2023-07-30T05:25:40;8.83;;;4.37;;
15412;SDS011;7805;49.554;7.632;2023-07-30T05:28:05;4.27;;;3.53;;
15412;SDS011;7805;49.554;7.632;2023-07-30T05:32:58;8.13;;;7.27;;
15412;SDS011;7805;49.554;7.632;2023-07-30T05:35:24;8.10;;;7.37;;
15412;SDS011;7805;49.554;7.632;2023-07-30T05:37:50;8.60;;;7.27;;
15412;SDS011;7805;49.554;7.632;2023-07-30T05:40:15;7.87;;;6.77;;
15412;SDS011;7805;49.554;7.632;2023-07-30T05:42:41;7.50;;;6.90;;
15412;SDS011;7805;49.554;7.632;2023-07-30T05:45:07;7.93;;;6.83;;
15412;SDS011;7805;49.554;7.632;2023-07-30T05:47:33;6.45;;;5.88;;
15412;SDS011;7805;49.554;7.632;2023-07-30T05:49:58;6.20;;;5.78;;
15412;SDS011;7805;49.554;7.632;2023-07-30T05:52:24;6.25;;;5.75;;
15412;SDS011;7805;49.554;7.632;2023-07-30T05:54:49;5.87;;;5.20;;
15412;SDS011;7805;49.554;7.632;2023-07-30T05:57:15;6.00;;;4.95;;
15412;SDS011;7805;49.554;7.632;2023-07-30T05:59:40;5.25;;;4.35;;
15412;SDS011;7805;49.554;7.632;2023-07-30T06:02:06;4.40;;;4.03;;
15412;SDS011;7805;49.554;7.632;2023-07-30T06:04:32;4.22;;;3.80;;
15412;SDS011;7805;49.554;7.632;2023-07-30T06:06:59;4.70;;;4.10;;
15412;SDS011;7805;49.554;7.632;2023-07-30T06:09:25;6.78;;;3.80;;
15412;SDS011;7805;49.554;7.632;2023-07-30T06:11:51;3.42;;;3.13;;
15412;SDS011;7805;49.554;7.632;2023-07-30T06:14:16;3.38;;;3.08;;
15412;SDS011;7805;49.554;7.632;2023-07-30T06:16:42;3.97;;;3.20;;
15412;SDS011;7805;49.554;7.632;2023-07-30T06:19:08;4.27;;;3.20;;
15412;SDS011;7805;49.554;7.632;2023-07-30T06:21:34;3.63;;;2.75;;
15412;SDS011;7805;49.554;7.632;2023-07-30T06:23:59;3.10;;;2.83;;
15412;SDS011;7805;49.554;7.632;2023-07-30T06:26:25;2.88;;;2.40;;
15412;SDS011;7805;49.554;7.632;2023-07-30T06:28:50;4.57;;;2.70;;
15412;SDS011;7805;49.554;7.632;2023-07-30T06:31:16;2.85;;;2.65;;
15412;SDS011;7805;49.554;7.632;2023-07-30T06:33:42;2.80;;;2.60;;
15412;SDS011;7805;49.554;7.632;2023-07-30T06:36:07;2.58;;;2.30;;
15412;SDS011;7805;49.554;7.632;2023-07-30T06:38:33;3.00;;;2.70;;
15412;SDS011;7805;49.554;7.632;2023-07-30T06:40:58;2.95;;;2.65;;
15412;SDS011;7805;49.554;7.632;2023-07-30T06:43:24;3.00;;;2.40;;
15412;SDS011;7805;49.554;7.632;2023-07-30T06:45:49;2.53;;;2.33;;
15412;SDS011;7805;49.554;7.632;2023-07-30T06:48:15;2.78;;;2.58;;
15412;SDS011;7805;49.554;7.632;2023-07-30T06:50:41;2.50;;;2.30;;
15412;SDS011;7805;49.554;7.632;2023-07-30T06:53:07;2.90;;;2.58;;
15412;SDS011;7805;49.554;7.632;2023-07-30T06:55:32;2.92;;;2.72;;
15412;SDS011;7805;49.554;7.632;2023-07-30T06:57:58;2.20;;;2.10;;
15412;SDS011;7805;49.554;7.632;2023-07-30T07:00:24;2.85;;;2.60;;
15412;SDS011;7805;49.554;7.632;2023-07-30T07:02:50;3.13;;;2.47;;
15412;SDS011;7805;49.554;7.632;2023-07-30T07:05:15;4.82;;;2.53;;
15412;SDS011;7805;49.554;7.632;2023-07-30T07:07:41;3.40;;;2.17;;
15412;SDS011;7805;49.554;7.632;2023-07-30T07:10:07;3.58;;;2.50;;
15412;SDS011;7805;49.554;7.632;2023-07-30T07:12:32;3.75;;;2.08;;
15412;SDS011;7805;49.554;7.632;2023-07-30T07:14:58;2.13;;;2.00;;
15412;SDS011;7805;49.554;7.632;2023-07-30T07:17:26;3.35;;;1.88;;
15412;SDS011;7805;49.554;7.632;2023-07-30T07:19:52;2.28;;;2.00;;
15412;SDS011;7805;49.554;7.632;2023-07-30T07:22:17;4.03;;;1.90;;
15412;SDS011;7805;49.554;7.632;2023-07-30T07:24:44;2.30;;;1.58;;
15412;SDS011;7805;49.554;7.632;2023-07-30T07:27:10;1.75;;;1.65;;
15412;SDS011;7805;49.554;7.632;2023-07-30T07:29:36;3.67;;;1.90;;
15412;SDS011;7805;49.554;7.632;2023-07-30T07:32:02;3.90;;;2.10;;
15412;SDS011;7805;49.554;7.632;2023-07-30T07:34:28;3.60;;;2.30;;
15412;SDS011;7805;49.554;7.632;2023-07-30T07:36:53;4.53;;;2.50;;
15412;SDS011;7805;49.554;7.632;2023-07-30T07:39:19;3.72;;;2.00;;
15412;SDS011;7805;49.554;7.632;2023-07-30T07:41:45;4.93;;;2.25;;
15412;SDS011;7805;49.554;7.632;2023-07-30T07:44:10;2.58;;;2.33;;
15412;SDS011;7805;49.554;7.632;2023-07-30T07:46:36;2.83;;;2.17;;
15412;SDS011;7805;49.554;7.632;2023-07-30T07:49:01;2.00;;;1.85;;
15412;SDS011;7805;49.554;7.632;2023-07-30T07:51:27;3.70;;;1.85;;
15412;SDS011;7805;49.554;7.632;2023-07-30T07:53:53;2.33;;;2.13;;
15412;SDS011;7805;49.554;7.632;2023-07-30T07:56:18;2.28;;;2.08;;
15412;SDS011;7805;49.554;7.632;2023-07-30T07:58:44;2.80;;;2.20;;
15412;SDS011;7805;49.554;7.632;2023-07-30T08:01:09;2.47;;;2.30;;
15412;SDS011;7805;49.554;7.632;2023-07-30T08:03:35;2.40;;;2.20;;
15412;SDS011;7805;49.554;7.632;2023-07-30T08:06:01;2.95;;;2.20;;
15412;SDS011;7805;49.554;7.632;2023-07-30T08:08:26;2.50;;;2.30;;
15412;SDS011;7805;49.554;7.632;2023-07-30T08:10:52;4.22;;;3.65;;
15412;SDS011;7805;49.554;7.632;2023-07-30T08:13:19;2.70;;;2.47;;
15412;SDS011;7805;49.554;7.632;2023-07-30T08:15:45;4.95;;;2.10;;
15412;SDS011;7805;49.554;7.632;2023-07-30T08:18:11;3.72;;;2.60;;
15412;SDS011;7805;49.554;7.632;2023-07-30T08:20:36;2.40;;;1.85;;
15412;SDS011;7805;49.554;7.632;2023-07-30T08:23:02;2.92;;;2.10;;
15412;SDS011;7805;49.554;7.632;2023-07-30T08:25:28;3.83;;;2.00;;
15412;SDS011;7805;49.554;7.632;2023-07-30T08:27:53;1.60;;;1.50;;
15412;SDS011;7805;49.554;7.632;2023-07-30T08:30:19;1.40;;;1.30;;
15412;SDS011;7805;49.554;7.632;2023-07-30T08:32:44;1.00;;;1.00;;
15412;SDS011;7805;49.554;7.632;2023-07-30T08:35:10;2.25;;;1.20;;
15412;SDS011;7805;49.554;7.632;2023-07-30T08:37:36;1.33;;;1.02;;
15412;SDS011;7805;49.554;7.632;2023-07-30T08:40:02;1.88;;;1.00;;
15412;SDS011;7805;49.554;7.632;2023-07-30T08:42:28;1.40;;;0.93;;
15412;SDS011;7805;49.554;7.632;2023-07-30T08:44:54;3.42;;;0.98;;
15412;SDS011;7805;49.554;7.632;2023-07-30T08:47:19;0.98;;;0.98;;
15412;SDS011;7805;49.554;7.632;2023-07-30T08:49:45;5.72;;;1.05;;
15412;SDS011;7805;49.554;7.632;2023-07-30T08:52:10;0.85;;;0.80;;
15412;SDS011;7805;49.554;7.632;2023-07-30T08:54:37;2.00;;;0.60;;
15412;SDS011;7805;49.554;7.632;2023-07-30T08:57:04;1.20;;;0.50;;
15412;SDS011;7805;49.554;7.632;2023-07-30T08:59:31;1.23;;;1.13;;
15412;SDS011;7805;49.554;7.632;2023-07-30T09:02:02;1.10;;;1.00;;
15412;SDS011;7805;49.554;7.632;2023-07-30T09:04:34;0.50;;;0.50;;
15412;SDS011;7805;49.554;7.632;2023-07-30T09:07:02;0.68;;;0.68;;
15412;SDS011;7805;49.554;7.632;2023-07-30T09:09:28;1.38;;;0.63;;
15412;SDS011;7805;49.554;7.632;2023-07-30T09:11:54;1.42;;;0.93;;
15412;SDS011;7805;49.554;7.632;2023-07-30T09:14:20;7.10;;;0.75;;
15412;SDS011;7805;49.554;7.632;2023-07-30T09:16:46;1.30;;;0.63;;
15412;SDS011;7805;49.554;7.632;2023-07-30T09:19:18;0.50;;;0.50;;
15412;SDS011;7805;49.554;7.632;2023-07-30T09:21:44;0.95;;;0.65;;
15412;SDS011;7805;49.554;7.632;2023-07-30T09:24:10;0.45;;;0.45;;
15412;SDS011;7805;49.554;7.632;2023-07-30T09:26:42;0.65;;;0.60;;
15412;SDS011;7805;49.554;7.632;2023-07-30T09:29:09;0.60;;;0.50;;
15412;SDS011;7805;49.554;7.632;2023-07-30T09:31:47;0.85;;;0.60;;
15412;SDS011;7805;49.554;7.632;2023-07-30T09:34:22;1.85;;;1.33;;
15412;SDS011;7805;49.554;7.632;2023-07-30T09:36:55;1.67;;;0.65;;
15412;SDS011;7805;49.554;7.632;2023-07-30T09:39:24;0.75;;;0.70;;
15412;SDS011;7805;49.554;7.632;2023-07-30T09:41:51;1.65;;;0.80;;
15412;SDS011;7805;49.554;7.632;2023-07-30T09:44:18;0.93;;;0.70;;
15412;SDS011;7805;49.554;7.632;2023-07-30T09:46:48;2.30;;;0.95;;
15412;SDS011;7805;49.554;7.632;2023-07-30T09:49:15;0.90;;;0.73;;
15412;SDS011;7805;49.554;7.632;2023-07-30T09:51:41;2.10;;;1.10;;
15412;SDS011;7805;49.554;7.632;2023-07-30T09:54:07;2.50;;;0.70;;
15412;SDS011;7805;49.554;7.632;2023-07-30T09:56:35;1.55;;;0.85;;
15412;SDS011;7805;49.554;7.632;2023-07-30T09:59:02;2.15;;;0.77;;
15412;SDS011;7805;49.554;7.632;2023-07-30T10:01:29;1.58;;;0.90;;
15412;SDS011;7805;49.554;7.632;2023-07-30T10:03:56;1.67;;;0.70;;
15412;SDS011;7805;49.554;7.632;2023-07-30T10:06:23;1.80;;;0.88;;
15412;SDS011;7805;49.554;7.632;2023-07-30T10:08:52;2.15;;;0.88;;
15412;SDS011;7805;49.554;7.632;2023-07-30T10:11:20;2.00;;;1.00;;
15412;SDS011;7805;49.554;7.632;2023-07-30T10:13:46;1.83;;;0.90;;
15412;SDS011;7805;49.554;7.632;2023-07-30T10:16:12;2.30;;;0.98;;
15412;SDS011;7805;49.554;7.632;2023-07-30T10:18:41;1.83;;;0.90;;
15412;SDS011;7805;49.554;7.632;2023-07-30T10:21:08;2.20;;;0.95;;
15412;SDS011;7805;49.554;7.632;2023-07-30T10:23:35;2.50;;;1.25;;
15412;SDS011;7805;49.554;7.632;2023-07-30T10:26:10;3.13;;;1.52;;
15412;SDS011;7805;49.554;7.632;2023-07-30T10:28:36;2.10;;;1.15;;
15412;SDS011;7805;49.554;7.632;2023-07-30T10:31:05;2.42;;;1.40;;
15412;SDS011;7805;49.554;7.632;2023-07-30T10:33:47;2.80;;;1.13;;
15412;SDS011;7805;49.554;7.632;2023-07-30T10:36:18;3.85;;;1.13;;
15412;SDS011;7805;49.554;7.632;2023-07-30T10:39:17;2.83;;;1.27;;
15412;SDS011;7805;49.554;7.632;2023-07-30T10:41:51;3.95;;;1.15;;
15412;SDS011;7805;49.554;7.632;2023-07-30T10:44:24;4.00;;;1.35;;
15412;SDS011;7805;49.554;7.632;2023-07-30T10:46:50;5.53;;;1.23;;
15412;SDS011;7805;49.554;7.632;2023-07-30T10:49:20;4.82;;;1.50;;
15412;SDS011;7805;49.554;7.632;2023-07-30T10:51:45;2.63;;;1.55;;
15412;SDS011;7805;49.554;7.632;2023-07-30T10:54:11;2.83;;;1.20;;
15412;SDS011;7805;49.554;7.632;2023-07-30T10:56:37;5.28;;;1.33;;
15412;SDS011;7805;49.554;7.632;2023-07-30T10:59:04;3.78;;;1.42;;
15412;SDS011;7805;49.554;7.632;2023-07-30T11:01:39;4.10;;;1.45;;
15412;SDS011;7805;49.554;7.632;2023-07-30T11:04:08;3.95;;;1.70;;
15412;SDS011;7805;49.554;7.632;2023-07-30T11:06:47;3.42;;;1.30;;
15412;SDS011;7805;49.554;7.632;2023-07-30T11:09:21;4.47;;;1.92;;
15412;SDS011;7805;49.554;7.632;2023-07-30T11:11:48;5.55;;;1.85;;
15412;SDS011;7805;49.554;7.632;2023-07-30T11:14:15;4.22;;;1.50;;
15412;SDS011;7805;49.554;7.632;2023-07-30T11:16:49;3.05;;;1.63;;
15412;SDS011;7805;49.554;7.632;2023-07-30T11:19:17;3.90;;;2.03;;
15412;SDS011;7805;49.554;7.632;2023-07-30T11:21:44;2.40;;;1.30;;
15412;SDS011;7805;49.554;7.632;2023-07-30T11:24:13;3.53;;;1.30;;
15412;SDS011;7805;49.554;7.632;2023-07-30T11:26:39;2.97;;;1.40;;
15412;SDS011;7805;49.554;7.632;2023-07-30T11:29:17;4.88;;;1.63;;
15412;SDS011;7805;49.554;7.632;2023-07-30T11:31:43;4.13;;;1.70;;
15412;SDS011;7805;49.554;7.632;2023-07-30T11:34:10;3.42;;;1.40;;
15412;SDS011;7805;49.554;7.632;2023-07-30T11:36:36;2.72;;;1.40;;
15412;SDS011;7805;49.554;7.632;2023-07-30T11:39:03;5.18;;;1.55;;
15412;SDS011;7805;49.554;7.632;2023-07-30T11:41:29;2.80;;;1.25;;
15412;SDS011;7805;49.554;7.632;2023-07-30T11:43:55;5.63;;;1.30;;
15412;SDS011;7805;49.554;7.632;2023-07-30T11:46:20;3.13;;;1.40;;
15412;SDS011;7805;49.554;7.632;2023-07-30T11:48:48;5.18;;;1.30;;
15412;SDS011;7805;49.554;7.632;2023-07-30T11:53:48;3.25;;;1.23;;
15412;SDS011;7805;49.554;7.632;2023-07-30T11:56:19;3.55;;;1.10;;
15412;SDS011;7805;49.554;7.632;2023-07-30T11:58:54;3.97;;;1.17;;
15412;SDS011;7805;49.554;7.632;2023-07-30T12:01:22;4.78;;;1.40;;
15412;SDS011;7805;49.554;7.632;2023-07-30T12:03:49;3.05;;;1.15;;
15412;SDS011;7805;49.554;7.632;2023-07-30T12:06:15;2.80;;;1.23;;
15412;SDS011;7805;49.554;7.632;2023-07-30T12:08:40;3.28;;;1.33;;
15412;SDS011;7805;49.554;7.632;2023-07-30T12:11:06;5.35;;;1.60;;
15412;SDS011;7805;49.554;7.632;2023-07-30T12:13:33;4.75;;;1.83;;
15412;SDS011;7805;49.554;7.632;2023-07-30T12:16:06;4.78;;;1.58;;
15412;SDS011;7805;49.554;7.632;2023-07-30T12:18:32;4.00;;;1.55;;
15412;SDS011;7805;49.554;7.632;2023-07-30T12:20:57;4.45;;;1.67;;
15412;SDS011;7805;49.554;7.632;2023-07-30T12:23:23;4.50;;;1.70;;
15412;SDS011;7805;49.554;7.632;2023-07-30T12:25:48;2.83;;;1.20;;
15412;SDS011;7805;49.554;7.632;2023-07-30T12:28:15;3.33;;;1.42;;
15412;SDS011;7805;49.554;7.632;2023-07-30T12:30:40;3.85;;;1.40;;
15412;SDS011;7805;49.554;7.632;2023-07-30T12:33:06;4.13;;;1.23;;
15412;SDS011;7805;49.554;7.632;2023-07-30T12:35:32;3.63;;;1.40;;
15412;SDS011;7805;49.554;7.632;2023-07-30T12:38:01;6.53;;;1.58;;
15412;SDS011;7805;49.554;7.632;2023-07-30T12:40:26;3.95;;;1.50;;
15412;SDS011;7805;49.554;7.632;2023-07-30T12:42:54;2.80;;;1.20;;
15412;SDS011;7805;49.554;7.632;2023-07-30T12:45:20;4.20;;;1.65;;
15412;SDS011;7805;49.554;7.632;2023-07-30T12:47:46;3.47;;;1.55;;
15412;SDS011;7805;49.554;7.632;2023-07-30T12:50:12;5.50;;;1.30;;
15412;SDS011;7805;49.554;7.632;2023-07-30T12:52:37;3.33;;;1.40;;
15412;SDS011;7805;49.554;7.632;2023-07-30T12:55:03;5.90;;;1.38;;
15412;SDS011;7805;49.554;7.632;2023-07-30T12:57:29;5.35;;;1.50;;
15412;SDS011;7805;49.554;7.632;2023-07-30T12:59:55;3.05;;;1.42;;
15412;SDS011;7805;49.554;7.632;2023-07-30T13:02:21;4.43;;;1.52;;
15412;SDS011;7805;49.554;7.632;2023-07-30T13:04:46;3.30;;;1.63;;
15412;SDS011;7805;49.554;7.632;2023-07-30T13:07:12;2.45;;;1.25;;
15412;SDS011;7805;49.554;7.632;2023-07-30T13:09:37;5.93;;;1.55;;
15412;SDS011;7805;49.554;7.632;2023-07-30T13:12:03;2.47;;;1.20;;
15412;SDS011;7805;49.554;7.632;2023-07-30T13:14:29;4.18;;;1.33;;
15412;SDS011;7805;49.554;7.632;2023-07-30T13:16:54;2.50;;;1.27;;
15412;SDS011;7805;49.554;7.632;2023-07-30T13:19:20;3.53;;;1.48;;
15412;SDS011;7805;49.554;7.632;2023-07-30T13:21:45;3.83;;;1.48;;
15412;SDS011;7805;49.554;7.632;2023-07-30T13:24:11;3.00;;;1.15;;
15412;SDS011;7805;49.554;7.632;2023-07-30T13:26:36;4.70;;;1.38;;
15412;SDS011;7805;49.554;7.632;2023-07-30T13:29:03;4.30;;;1.70;;
15412;SDS011;7805;49.554;7.632;2023-07-30T13:31:29;1.85;;;1.23;;
15412;SDS011;7805;49.554;7.632;2023-07-30T13:33:55;4.00;;;1.63;;
15412;SDS011;7805;49.554;7.632;2023-07-30T13:36:21;2.45;;;1.30;;
15412;SDS011;7805;49.554;7.632;2023-07-30T13:38:46;4.68;;;1.63;;
15412;SDS011;7805;49.554;7.632;2023-07-30T13:41:12;3.42;;;1.48;;
15412;SDS011;7805;49.554;7.632;2023-07-30T13:43:38;3.70;;;1.33;;
15412;SDS011;7805;49.554;7.632;2023-07-30T13:46:04;4.07;;;1.50;;
15412;SDS011;7805;49.554;7.632;2023-07-30T13:48:29;2.97;;;1.55;;
15412;SDS011;7805;49.554;7.632;2023-07-30T13:50:55;2.33;;;1.42;;
15412;SDS011;7805;49.554;7.632;2023-07-30T13:53:21;4.88;;;1.70;;
15412;SDS011;7805;49.554;7.632;2023-07-30T13:55:46;5.07;;;1.33;;
15412;SDS011;7805;49.554;7.632;2023-07-30T13:58:12;1.38;;;1.27;;
15412;SDS011;7805;49.554;7.632;2023-07-30T14:00:39;4.40;;;1.58;;
15412;SDS011;7805;49.554;7.632;2023-07-30T14:03:05;4.97;;;1.50;;
15412;SDS011;7805;49.554;7.632;2023-07-30T14:05:31;3.85;;;1.30;;
15412;SDS011;7805;49.554;7.632;2023-07-30T14:07:57;4.18;;;1.50;;
15412;SDS011;7805;49.554;7.632;2023-07-30T14:10:23;3.00;;;1.45;;
15412;SDS011;7805;49.554;7.632;2023-07-30T14:12:48;2.95;;;1.27;;
15412;SDS011;7805;49.554;7.632;2023-07-30T14:15:14;3.55;;;1.27;;
15412;SDS011;7805;49.554;7.632;2023-07-30T14:17:40;2.50;;;1.40;;
15412;SDS011;7805;49.554;7.632;2023-07-30T14:20:06;3.80;;;1.70;;
15412;SDS011;7805;49.554;7.632;2023-07-30T14:22:33;3.15;;;1.30;;
15412;SDS011;7805;49.554;7.632;2023-07-30T14:24:59;2.17;;;1.65;;
15412;SDS011;7805;49.554;7.632;2023-07-30T14:27:25;2.53;;;1.50;;
15412;SDS011;7805;49.554;7.632;2023-07-30T14:29:50;4.13;;;1.80;;
15412;SDS011;7805;49.554;7.632;2023-07-30T14:32:17;4.13;;;1.23;;
15412;SDS011;7805;49.554;7.632;2023-07-30T14:34:44;2.80;;;1.30;;
15412;SDS011;7805;49.554;7.632;2023-07-30T14:37:09;3.33;;;1.45;;
15412;SDS011;7805;49.554;7.632;2023-07-30T14:39:35;3.72;;;1.48;;
15412;SDS011;7805;49.554;7.632;2023-07-30T14:42:00;3.78;;;1.20;;
15412;SDS011;7805;49.554;7.632;2023-07-30T14:44:26;3.53;;;1.30;;
15412;SDS011;7805;49.554;7.632;2023-07-30T14:46:51;2.63;;;1.23;;
15412;SDS011;7805;49.554;7.632;2023-07-30T14:49:17;4.97;;;1.40;;
15412;SDS011;7805;49.554;7.632;2023-07-30T14:51:43;3.95;;;1.48;;
15412;SDS011;7805;49.554;7.632;2023-07-30T14:54:08;3.55;;;1.20;;
15412;SDS011;7805;49.554;7.632;2023-07-30T14:56:35;2.90;;;1.38;;
15412;SDS011;7805;49.554;7.632;2023-07-30T14:59:01;4.68;;;1.83;;
15412;SDS011;7805;49.554;7.632;2023-07-30T15:01:29;3.85;;;1.30;;